No particular awareness of the weather is required.    There are no Weather-warnings


Meteo18 Weather Cam more information Meteo18 Weather Cam


Thunder radar more information blitzortung!


Rain radar more information rain snow radar


Visit our other weather sites:

Template documentation
and downloads

And another site



Weather Underground History page Text

Daily Summary for January 15, 2017 Units:  Both    English   Metric
« Previous Day
Next Day »
Daily Weekly Monthly Yearly Custom
  High: Low: Average:
Temperature: TemperatureC °F /  -17.8 °C -0.8 °F /  -18.2 °C 0.9 °F /  -17.3 °C
Dew Point: DewpointC °F /  -17.8 °C -1.5 °F /  -18.6 °C -0 °F /  -17.8 °C
Humidity: Humidity % 88 % 93 %
Wind Speed: WindSpeedKMH mph /  0 km/h - 2.7 mph /  4.3 km/h
Wind Gust: WindSpeedGustKMH mph /  0 km/h - -
Wind:- - West
Pressure: PressurehPa in /  0 hPa 1021.9 in /  34601.5 hPa -
Precipitation: 1.5 in /  38.1 mm    
Historical Graphs
 
 
Tabular Data for January 15, 2017
Time Temperature Dew Point Pressure Wind Wind Speed Wind Gust Humidity Rainfall Rate (Hourly)
TemperatureC °F /  -17.8 °C DewpointC °F /  -17.8 °C PressurehPa in /  0 hPa Calm     Humidity % HourlyPrecipMM in /  0 mm
00:02 1.3 °F /  -17.1 °C 0.6 °F /  -17.4 °C 1022.2 in /  34611.7 hPa North 9.7 mph /  15.6 km/h 12.9 mph /  20.8 km/h 95 % 0.3 in /  7.62 mm
00:07 1.4 °F /  -17 °C 0.7 °F /  -17.4 °C 1022.2 in /  34611.7 hPa North 9.7 mph /  15.6 km/h 14.5 mph /  23.3 km/h 95 % 0.3 in /  7.62 mm
00:12 1.4 °F /  -17 °C 0.7 °F /  -17.4 °C 1022.2 in /  34611.7 hPa NNE 3.2 mph /  5.1 km/h 14.5 mph /  23.3 km/h 95 % 0.3 in /  7.62 mm
00:17 1.4 °F /  -17 °C 0.7 °F /  -17.4 °C 1022.2 in /  34611.7 hPa NW 11.3 mph /  18.2 km/h 14.5 mph /  23.3 km/h 95 % 0.3 in /  7.62 mm
00:22 1.4 °F /  -17 °C 0.7 °F /  -17.4 °C 1022.2 in /  34611.7 hPa NNE 6.4 mph /  10.3 km/h 12.9 mph /  20.8 km/h 95 % 0.3 in /  7.62 mm
00:27 1.4 °F /  -17 °C 0.7 °F /  -17.4 °C 1022.6 in /  34625.2 hPa NNW 3.2 mph /  5.1 km/h 16.1 mph /  25.9 km/h 95 % 0.3 in /  7.62 mm
00:32 1.4 °F /  -17 °C 0.5 °F /  -17.5 °C 1022.6 in /  34625.2 hPa NW 11.3 mph /  18.2 km/h 16.1 mph /  25.9 km/h 94 % 0.0 in /  0 mm
00:37 1.4 °F /  -17 °C 0.5 °F /  -17.5 °C 1022.6 in /  34625.2 hPa NW 4.8 mph /  7.7 km/h 16.1 mph /  25.9 km/h 94 % 0.0 in /  0 mm
00:42 1.4 °F /  -17 °C 0.5 °F /  -17.5 °C 1022.6 in /  34625.2 hPa NNW 11.3 mph /  18.2 km/h 12.9 mph /  20.8 km/h 94 % 0.0 in /  0 mm
00:52 1.4 °F /  -17 °C 0.5 °F /  -17.5 °C 1022.6 in /  34625.2 hPa NNW 6.4 mph /  10.3 km/h 22.5 mph /  36.2 km/h 94 % 0.0 in /  0 mm
00:57 1.3 °F /  -17.1 °C 0.4 °F /  -17.6 °C 1022.6 in /  34625.2 hPa NNE 4.8 mph /  7.7 km/h 22.5 mph /  36.2 km/h 94 % 0.0 in /  0 mm
01:02 1.3 °F /  -17.1 °C 0.4 °F /  -17.6 °C 1022.6 in /  34625.2 hPa NNW 8.0 mph /  12.9 km/h 22.5 mph /  36.2 km/h 94 % 0.0 in /  0 mm
01:07 1.3 °F /  -17.1 °C 0.4 °F /  -17.6 °C 1022.9 in /  34635.4 hPa North 12.9 mph /  20.8 km/h 22.5 mph /  36.2 km/h 94 % 0.0 in /  0 mm
01:12 1.3 °F /  -17.1 °C 0.3 °F /  -17.6 °C 1022.9 in /  34635.4 hPa North 17.7 mph /  28.5 km/h 22.5 mph /  36.2 km/h 93 % 0.0 in /  0 mm
01:17 1.3 °F /  -17.1 °C 0.3 °F /  -17.6 °C 1022.9 in /  34635.4 hPa NW 4.8 mph /  7.7 km/h 25.7 mph /  41.4 km/h 93 % 0.0 in /  0 mm
01:22 1.3 °F /  -17.1 °C 0.3 °F /  -17.6 °C 1022.9 in /  34635.4 hPa North 8.0 mph /  12.9 km/h 25.7 mph /  41.4 km/h 93 % 0.0 in /  0 mm
01:27 1.3 °F /  -17.1 °C 0.3 °F /  -17.6 °C 1022.9 in /  34635.4 hPa North 6.4 mph /  10.3 km/h 25.7 mph /  41.4 km/h 93 % 0.0 in /  0 mm
01:32 1.3 °F /  -17.1 °C 0.3 °F /  -17.6 °C 1022.9 in /  34635.4 hPa NNW 4.8 mph /  7.7 km/h 17.7 mph /  28.5 km/h 93 % 0.0 in /  0 mm
01:37 1.2 °F /  -17.1 °C 0.2 °F /  -17.7 °C 1022.9 in /  34635.4 hPa NNW 3.2 mph /  5.1 km/h 16.1 mph /  25.9 km/h 93 % 0.0 in /  0 mm
01:42 1.2 °F /  -17.1 °C 0.2 °F /  -17.7 °C 1022.9 in /  34635.4 hPa NNE 11.3 mph /  18.2 km/h 14.5 mph /  23.3 km/h 93 % 0.0 in /  0 mm
01:47 1.1 °F /  -17.2 °C 0.1 °F /  -17.7 °C 1022.9 in /  34635.4 hPa North 8.0 mph /  12.9 km/h 14.5 mph /  23.3 km/h 93 % 0.0 in /  0 mm
01:52 1.1 °F /  -17.2 °C 0.1 °F /  -17.7 °C 1022.9 in /  34635.4 hPa North 6.4 mph /  10.3 km/h 14.5 mph /  23.3 km/h 93 % 0.0 in /  0 mm
01:57 1.1 °F /  -17.2 °C 0.1 °F /  -17.7 °C 1022.9 in /  34635.4 hPa NNE 1.6 mph /  2.6 km/h 14.5 mph /  23.3 km/h 93 % 0.0 in /  0 mm
02:02 1.1 °F /  -17.2 °C 0.1 °F /  -17.7 °C 1022.9 in /  34635.4 hPa North 11.3 mph /  18.2 km/h 14.5 mph /  23.3 km/h 93 % 0.0 in /  0 mm
02:07 1.1 °F /  -17.2 °C 0.1 °F /  -17.7 °C 1023.2 in /  34645.6 hPa NW 8.0 mph /  12.9 km/h 14.5 mph /  23.3 km/h 93 % 0.0 in /  0 mm
02:12 1.1 °F /  -17.2 °C 0.1 °F /  -17.7 °C 1023.2 in /  34645.6 hPa North 1.6 mph /  2.6 km/h 14.5 mph /  23.3 km/h 93 % 0.0 in /  0 mm
02:17 1.2 °F /  -17.1 °C 0.2 °F /  -17.7 °C 1023.2 in /  34645.6 hPa NNW 11.3 mph /  18.2 km/h 16.1 mph /  25.9 km/h 93 % 0.0 in /  0 mm
02:22 1.2 °F /  -17.1 °C 0.0 °F /  -17.8 °C 1023.2 in /  34645.6 hPa NNW 8.0 mph /  12.9 km/h 16.1 mph /  25.9 km/h 92 % 0.0 in /  0 mm
02:27 1.2 °F /  -17.1 °C 0.0 °F /  -17.8 °C 1023.2 in /  34645.6 hPa NNW 3.2 mph /  5.1 km/h 16.1 mph /  25.9 km/h 92 % 0.0 in /  0 mm
02:32 1.2 °F /  -17.1 °C 0.0 °F /  -17.8 °C 1023.2 in /  34645.6 hPa NW 4.8 mph /  7.7 km/h 14.5 mph /  23.3 km/h 92 % 0.0 in /  0 mm
02:37 1.2 °F /  -17.1 °C 0.2 °F /  -17.7 °C 1023.2 in /  34645.6 hPa NNW 4.8 mph /  7.7 km/h 14.5 mph /  23.3 km/h 93 % 0.0 in /  0 mm
02:42 1.2 °F /  -17.1 °C 0.2 °F /  -17.7 °C 1023.2 in /  34645.6 hPa North 8.0 mph /  12.9 km/h 11.3 mph /  18.2 km/h 93 % 0.0 in /  0 mm
02:52 1.2 °F /  -17.1 °C -0.1 °F /  -17.8 °C 1023.2 in /  34645.6 hPa NNW 4.8 mph /  7.7 km/h 17.7 mph /  28.5 km/h 91 % 0.0 in /  0 mm
02:57 1.1 °F /  -17.2 °C -0.1 °F /  -17.8 °C 1023.6 in /  34659.1 hPa North 6.4 mph /  10.3 km/h 17.7 mph /  28.5 km/h 92 % 0.0 in /  0 mm
03:02 1.1 °F /  -17.2 °C -0.1 °F /  -17.8 °C 1023.6 in /  34659.1 hPa North 12.9 mph /  20.8 km/h 12.9 mph /  20.8 km/h 92 % 0.0 in /  0 mm
03:07 1.1 °F /  -17.2 °C -0.1 °F /  -17.8 °C 1023.6 in /  34659.1 hPa NNW 12.9 mph /  20.8 km/h 12.9 mph /  20.8 km/h 92 % 0.0 in /  0 mm
03:12 1.1 °F /  -17.2 °C -0.1 °F /  -17.8 °C 1023.6 in /  34659.1 hPa NNW 8.0 mph /  12.9 km/h 14.5 mph /  23.3 km/h 92 % 0.0 in /  0 mm
03:17 1.1 °F /  -17.2 °C -0.1 °F /  -17.8 °C 1023.6 in /  34659.1 hPa NW 4.8 mph /  7.7 km/h 14.5 mph /  23.3 km/h 92 % 0.0 in /  0 mm
03:22 0.9 °F /  -17.3 °C -0.3 °F /  -17.9 °C 1023.6 in /  34659.1 hPa NNW 3.2 mph /  5.1 km/h 14.5 mph /  23.3 km/h 92 % 0.0 in /  0 mm
03:27 0.9 °F /  -17.3 °C -0.3 °F /  -17.9 °C 1023.6 in /  34659.1 hPa NNW 4.8 mph /  7.7 km/h 14.5 mph /  23.3 km/h 92 % 0.0 in /  0 mm
03:32 0.8 °F /  -17.3 °C -0.4 °F /  -18 °C 1023.6 in /  34659.1 hPa Calm   8.0 mph /  12.9 km/h 92 % 0.0 in /  0 mm
03:37 0.7 °F /  -17.4 °C -0.5 °F /  -18.1 °C 1023.9 in /  34669.3 hPa NNE 4.8 mph /  7.7 km/h 8.0 mph /  12.9 km/h 92 % 0.0 in /  0 mm
03:42 0.6 °F /  -17.4 °C -0.4 °F /  -18 °C 1023.9 in /  34669.3 hPa NNW 1.6 mph /  2.6 km/h 8.0 mph /  12.9 km/h 93 % 0.0 in /  0 mm
03:47 0.4 °F /  -17.6 °C -0.7 °F /  -18.2 °C 1023.9 in /  34669.3 hPa Calm   8.0 mph /  12.9 km/h 92 % 0.0 in /  0 mm
03:52 0.4 °F /  -17.6 °C -0.6 °F /  -18.1 °C 1023.9 in /  34669.3 hPa NNE 1.6 mph /  2.6 km/h 8.0 mph /  12.9 km/h 93 % 0.0 in /  0 mm
03:57 0.3 °F /  -17.6 °C -0.7 °F /  -18.2 °C 1023.9 in /  34669.3 hPa Calm   4.8 mph /  7.7 km/h 93 % 0.0 in /  0 mm
04:02 0.3 °F /  -17.6 °C -0.7 °F /  -18.2 °C 1023.9 in /  34669.3 hPa NNW 1.6 mph /  2.6 km/h 4.8 mph /  7.7 km/h 93 % 0.0 in /  0 mm
04:07 0.3 °F /  -17.6 °C -0.7 °F /  -18.2 °C 1023.9 in /  34669.3 hPa Calm   4.8 mph /  7.7 km/h 93 % 0.0 in /  0 mm
04:12 0.2 °F /  -17.7 °C -0.8 °F /  -18.2 °C 1023.9 in /  34669.3 hPa NNW 1.6 mph /  2.6 km/h 4.8 mph /  7.7 km/h 93 % 0.0 in /  0 mm
04:17 0.3 °F /  -17.6 °C -0.7 °F /  -18.2 °C 1023.9 in /  34669.3 hPa Calm   4.8 mph /  7.7 km/h 93 % 0.0 in /  0 mm
04:22 0.2 °F /  -17.7 °C -0.8 °F /  -18.2 °C 1023.9 in /  34669.3 hPa NW 3.2 mph /  5.1 km/h 4.8 mph /  7.7 km/h 93 % 0.0 in /  0 mm
04:27 0.2 °F /  -17.7 °C -0.9 °F /  -18.3 °C 1023.9 in /  34669.3 hPa Calm   3.2 mph /  5.1 km/h 92 % 0.0 in /  0 mm
04:32 0.2 °F /  -17.7 °C -0.9 °F /  -18.3 °C 1024.3 in /  34682.8 hPa NW 1.6 mph /  2.6 km/h 4.8 mph /  7.7 km/h 92 % 0.0 in /  0 mm
04:37 0.2 °F /  -17.7 °C -0.9 °F /  -18.3 °C 1024.3 in /  34682.8 hPa NW 1.6 mph /  2.6 km/h 4.8 mph /  7.7 km/h 92 % 0.0 in /  0 mm
04:42 0.2 °F /  -17.7 °C -0.9 °F /  -18.3 °C 1024.3 in /  34682.8 hPa Calm   4.8 mph /  7.7 km/h 92 % 0.0 in /  0 mm
04:47 0.2 °F /  -17.7 °C -0.9 °F /  -18.3 °C 1024.3 in /  34682.8 hPa NNW 1.6 mph /  2.6 km/h 6.4 mph /  10.3 km/h 92 % 0.0 in /  0 mm
04:52 0.1 °F /  -17.7 °C -1.0 °F /  -18.3 °C 1024.3 in /  34682.8 hPa NNW 1.6 mph /  2.6 km/h 6.4 mph /  10.3 km/h 92 % 0.0 in /  0 mm
04:57 0.0 °F /  -17.8 °C -1.1 °F /  -18.4 °C 1024.3 in /  34682.8 hPa NW 1.6 mph /  2.6 km/h 6.4 mph /  10.3 km/h 92 % 0.0 in /  0 mm
05:02 -0.1 °F /  -17.8 °C -1.1 °F /  -18.4 °C 1024.3 in /  34682.8 hPa NW 1.6 mph /  2.6 km/h 4.8 mph /  7.7 km/h 93 % 0.0 in /  0 mm
05:17 -0.1 °F /  -17.8 °C -0.9 °F /  -18.3 °C 1024.3 in /  34682.8 hPa Calm   3.2 mph /  5.1 km/h 94 % 0.0 in /  0 mm
05:22 -0.1 °F /  -17.8 °C -0.9 °F /  -18.3 °C 1024.6 in /  34693 hPa Calm   4.8 mph /  7.7 km/h 94 % 0.0 in /  0 mm
05:27 -0.1 °F /  -17.8 °C -0.9 °F /  -18.3 °C 1024.6 in /  34693 hPa North 3.2 mph /  5.1 km/h 4.8 mph /  7.7 km/h 94 % 0.0 in /  0 mm
05:32 0.0 °F /  -17.8 °C -0.8 °F /  -18.2 °C 1024.6 in /  34693 hPa NW 1.6 mph /  2.6 km/h 4.8 mph /  7.7 km/h 94 % 0.0 in /  0 mm
05:37 0.0 °F /  -17.8 °C -1.0 °F /  -18.3 °C 1024.6 in /  34693 hPa NW 3.2 mph /  5.1 km/h 9.7 mph /  15.6 km/h 93 % 0.0 in /  0 mm
05:42 0.0 °F /  -17.8 °C -1.0 °F /  -18.3 °C 1024.6 in /  34693 hPa WNW 4.8 mph /  7.7 km/h 9.7 mph /  15.6 km/h 93 % 0.0 in /  0 mm
05:47 0.0 °F /  -17.8 °C -0.8 °F /  -18.2 °C 1024.9 in /  34703.1 hPa WNW 4.8 mph /  7.7 km/h 8.0 mph /  12.9 km/h 94 % 0.0 in /  0 mm
05:52 0.0 °F /  -17.8 °C -0.8 °F /  -18.2 °C 1024.9 in /  34703.1 hPa NW 3.2 mph /  5.1 km/h 8.0 mph /  12.9 km/h 94 % 0.0 in /  0 mm
05:57 0.0 °F /  -17.8 °C -0.8 °F /  -18.2 °C 1024.9 in /  34703.1 hPa WNW 1.6 mph /  2.6 km/h 8.0 mph /  12.9 km/h 94 % 0.0 in /  0 mm
06:02 -0.1 °F /  -17.8 °C -1.1 °F /  -18.4 °C 1024.9 in /  34703.1 hPa NNE 4.8 mph /  7.7 km/h 8.0 mph /  12.9 km/h 93 % 0.0 in /  0 mm
06:07 -0.1 °F /  -17.8 °C -1.1 °F /  -18.4 °C 1024.9 in /  34703.1 hPa NNW 3.2 mph /  5.1 km/h 8.0 mph /  12.9 km/h 93 % 0.0 in /  0 mm
06:12 -0.1 °F /  -17.8 °C -1.1 °F /  -18.4 °C 1024.9 in /  34703.1 hPa WNW 3.2 mph /  5.1 km/h 8.0 mph /  12.9 km/h 93 % 0.0 in /  0 mm
06:17 -0.1 °F /  -17.8 °C -0.9 °F /  -18.3 °C 1024.9 in /  34703.1 hPa WNW 4.8 mph /  7.7 km/h 8.0 mph /  12.9 km/h 94 % 0.0 in /  0 mm
06:22 0.0 °F /  -17.8 °C -1.0 °F /  -18.3 °C 1024.9 in /  34703.1 hPa NW 4.8 mph /  7.7 km/h 8.0 mph /  12.9 km/h 93 % 0.0 in /  0 mm
06:32 -0.1 °F /  -17.8 °C -1.1 °F /  -18.4 °C 1024.9 in /  34703.1 hPa WNW 8.0 mph /  12.9 km/h 8.0 mph /  12.9 km/h 93 % 0.0 in /  0 mm
06:37 -0.1 °F /  -17.8 °C -1.1 °F /  -18.4 °C 1024.9 in /  34703.1 hPa WNW 6.4 mph /  10.3 km/h 9.7 mph /  15.6 km/h 93 % 0.0 in /  0 mm
06:42 0.0 °F /  -17.8 °C -1.0 °F /  -18.3 °C 1024.9 in /  34703.1 hPa West 1.6 mph /  2.6 km/h 9.7 mph /  15.6 km/h 93 % 0.0 in /  0 mm
06:47 0.0 °F /  -17.8 °C -1.0 °F /  -18.3 °C 1024.9 in /  34703.1 hPa WNW 4.8 mph /  7.7 km/h 14.5 mph /  23.3 km/h 93 % 0.0 in /  0 mm
06:52 -0.1 °F /  -17.8 °C -1.1 °F /  -18.4 °C 1024.9 in /  34703.1 hPa WNW 4.8 mph /  7.7 km/h 14.5 mph /  23.3 km/h 93 % 0.0 in /  0 mm
06:57 -0.1 °F /  -17.8 °C -1.1 °F /  -18.4 °C 1024.9 in /  34703.1 hPa Calm   12.9 mph /  20.8 km/h 93 % 0.0 in /  0 mm
07:02 -0.2 °F /  -17.9 °C -1.2 °F /  -18.4 °C 1024.9 in /  34703.1 hPa WSW 4.8 mph /  7.7 km/h 12.9 mph /  20.8 km/h 93 % 0.0 in /  0 mm
07:12 -0.3 °F /  -17.9 °C -1.3 °F /  -18.5 °C 1024.9 in /  34703.1 hPa Calm   9.7 mph /  15.6 km/h 93 % 0.0 in /  0 mm
07:17 -0.4 °F /  -18 °C -1.4 °F /  -18.6 °C 1024.9 in /  34703.1 hPa SSW 1.6 mph /  2.6 km/h 6.4 mph /  10.3 km/h 93 % 0.0 in /  0 mm
07:22 -0.4 °F /  -18 °C -1.2 °F /  -18.4 °C 1025.3 in /  34716.7 hPa SW 3.2 mph /  5.1 km/h 4.8 mph /  7.7 km/h 94 % 0.0 in /  0 mm
07:32 -0.4 °F /  -18 °C -1.2 °F /  -18.4 °C 1024.9 in /  34703.1 hPa SW 3.2 mph /  5.1 km/h 4.8 mph /  7.7 km/h 94 % 0.0 in /  0 mm
07:37 -0.5 °F /  -18.1 °C -1.3 °F /  -18.5 °C 1025.3 in /  34716.7 hPa SW 3.2 mph /  5.1 km/h 4.8 mph /  7.7 km/h 94 % 0.0 in /  0 mm
07:42 -0.6 °F /  -18.1 °C -1.4 °F /  -18.6 °C 1025.3 in /  34716.7 hPa Calm   4.8 mph /  7.7 km/h 94 % 0.0 in /  0 mm
07:47 -0.6 °F /  -18.1 °C -1.4 °F /  -18.6 °C 1025.3 in /  34716.7 hPa Calm   4.8 mph /  7.7 km/h 94 % 0.0 in /  0 mm
07:52 -0.6 °F /  -18.1 °C -1.3 °F /  -18.5 °C 1025.3 in /  34716.7 hPa Calm   4.8 mph /  7.7 km/h 95 % 0.0 in /  0 mm
07:57 -0.6 °F /  -18.1 °C -1.4 °F /  -18.6 °C 1025.3 in /  34716.7 hPa WNW 1.6 mph /  2.6 km/h 4.8 mph /  7.7 km/h 94 % 0.0 in /  0 mm
08:02 -0.6 °F /  -18.1 °C -1.4 °F /  -18.6 °C 1025.3 in /  34716.7 hPa WSW 1.6 mph /  2.6 km/h 4.8 mph /  7.7 km/h 94 % 0.0 in /  0 mm
08:12 -0.6 °F /  -18.1 °C -1.4 °F /  -18.6 °C 1025.3 in /  34716.7 hPa Calm   4.8 mph /  7.7 km/h 94 % 0.0 in /  0 mm
08:17 -0.6 °F /  -18.1 °C -1.4 °F /  -18.6 °C 1025.3 in /  34716.7 hPa Calm   3.2 mph /  5.1 km/h 94 % 0.0 in /  0 mm
08:22 -0.7 °F /  -18.2 °C -1.5 °F /  -18.6 °C 1025.3 in /  34716.7 hPa Calm   4.8 mph /  7.7 km/h 94 % 0.0 in /  0 mm
08:27 -0.7 °F /  -18.2 °C -1.5 °F /  -18.6 °C 1025.3 in /  34716.7 hPa WSW 1.6 mph /  2.6 km/h 4.8 mph /  7.7 km/h 94 % 0.0 in /  0 mm
08:32 -0.7 °F /  -18.2 °C -1.4 °F /  -18.6 °C 1025.3 in /  34716.7 hPa Calm   3.2 mph /  5.1 km/h 95 % 0.0 in /  0 mm
08:37 -0.8 °F /  -18.2 °C -1.5 °F /  -18.6 °C 1025.3 in /  34716.7 hPa Calm   3.2 mph /  5.1 km/h 95 % 0.0 in /  0 mm
08:42 -0.8 °F /  -18.2 °C -1.5 °F /  -18.6 °C 1025.3 in /  34716.7 hPa West 1.6 mph /  2.6 km/h 3.2 mph /  5.1 km/h 95 % 0.0 in /  0 mm
08:47 -0.7 °F /  -18.2 °C -1.4 °F /  -18.6 °C 1025.3 in /  34716.7 hPa Calm   3.2 mph /  5.1 km/h 95 % 0.0 in /  0 mm
08:52 -0.7 °F /  -18.2 °C -1.4 °F /  -18.6 °C 1025.6 in /  34726.8 hPa Calm   1.6 mph /  2.6 km/h 95 % 0.0 in /  0 mm
08:57 -0.6 °F /  -18.1 °C -1.3 °F /  -18.5 °C 1025.6 in /  34726.8 hPa Calm   1.6 mph /  2.6 km/h 95 % 0.0 in /  0 mm
09:02 -0.6 °F /  -18.1 °C -1.3 °F /  -18.5 °C 1025.6 in /  34726.8 hPa Calm   1.6 mph /  2.6 km/h 95 % 0.0 in /  0 mm
09:12 -0.4 °F /  -18 °C -1.1 °F /  -18.4 °C 1025.6 in /  34726.8 hPa WNW 3.2 mph /  5.1 km/h 3.2 mph /  5.1 km/h 95 % 0.0 in /  0 mm
09:17 -0.3 °F /  -17.9 °C -1.0 °F /  -18.3 °C 1025.6 in /  34726.8 hPa NW 4.8 mph /  7.7 km/h 4.8 mph /  7.7 km/h 95 % 0.0 in /  0 mm
09:22 -0.2 °F /  -17.9 °C -1.0 °F /  -18.3 °C 1026.0 in /  34740.4 hPa NNW 8.0 mph /  12.9 km/h 8.0 mph /  12.9 km/h 94 % 0.0 in /  0 mm
09:32 -0.1 °F /  -17.8 °C -0.9 °F /  -18.3 °C 1026.0 in /  34740.4 hPa WNW 3.2 mph /  5.1 km/h 11.3 mph /  18.2 km/h 94 % 0.0 in /  0 mm
09:37 -0.1 °F /  -17.8 °C -0.9 °F /  -18.3 °C 1026.0 in /  34740.4 hPa West 4.8 mph /  7.7 km/h 11.3 mph /  18.2 km/h 94 % 0.0 in /  0 mm
09:42 -0.1 °F /  -17.8 °C -0.9 °F /  -18.3 °C 1026.0 in /  34740.4 hPa NW 1.6 mph /  2.6 km/h 11.3 mph /  18.2 km/h 94 % 0.0 in /  0 mm
09:47 0.0 °F /  -17.8 °C -0.8 °F /  -18.2 °C 1026.0 in /  34740.4 hPa Calm   11.3 mph /  18.2 km/h 94 % 0.0 in /  0 mm
09:52 0.1 °F /  -17.7 °C -0.8 °F /  -18.2 °C 1026.0 in /  34740.4 hPa West 1.6 mph /  2.6 km/h 9.7 mph /  15.6 km/h 94 % 0.0 in /  0 mm
09:57 0.1 °F /  -17.7 °C -0.8 °F /  -18.2 °C 1026.0 in /  34740.4 hPa WNW 6.4 mph /  10.3 km/h 9.7 mph /  15.6 km/h 94 % 0.0 in /  0 mm
10:02 0.2 °F /  -17.7 °C -0.7 °F /  -18.2 °C 1026.0 in /  34740.4 hPa WSW 6.4 mph /  10.3 km/h 8.0 mph /  12.9 km/h 94 % 0.0 in /  0 mm
10:12 0.3 °F /  -17.6 °C -0.6 °F /  -18.1 °C 1026.0 in /  34740.4 hPa WNW 8.0 mph /  12.9 km/h 9.7 mph /  15.6 km/h 94 % 0.0 in /  0 mm
10:17 0.3 °F /  -17.6 °C -0.6 °F /  -18.1 °C 1026.0 in /  34740.4 hPa WNW 6.4 mph /  10.3 km/h 11.3 mph /  18.2 km/h 94 % 0.0 in /  0 mm
10:22 0.4 °F /  -17.6 °C -0.5 °F /  -18.1 °C 1026.0 in /  34740.4 hPa NW 3.2 mph /  5.1 km/h 11.3 mph /  18.2 km/h 94 % 0.0 in /  0 mm
10:27 0.4 °F /  -17.6 °C -0.5 °F /  -18.1 °C 1026.0 in /  34740.4 hPa West 3.2 mph /  5.1 km/h 9.7 mph /  15.6 km/h 94 % 0.0 in /  0 mm
10:32 0.5 °F /  -17.5 °C -0.4 °F /  -18 °C 1026.0 in /  34740.4 hPa NW 3.2 mph /  5.1 km/h 9.7 mph /  15.6 km/h 94 % 0.0 in /  0 mm
10:37 0.6 °F /  -17.4 °C -0.4 °F /  -18 °C 1026.0 in /  34740.4 hPa WNW 3.2 mph /  5.1 km/h 9.7 mph /  15.6 km/h 93 % 0.0 in /  0 mm
10:42 0.6 °F /  -17.4 °C -0.4 °F /  -18 °C 1026.0 in /  34740.4 hPa Calm   9.7 mph /  15.6 km/h 93 % 0.0 in /  0 mm
10:47 0.7 °F /  -17.4 °C -0.3 °F /  -17.9 °C 1026.3 in /  34750.5 hPa West 1.6 mph /  2.6 km/h 6.4 mph /  10.3 km/h 93 % 0.0 in /  0 mm
10:52 0.7 °F /  -17.4 °C -0.3 °F /  -17.9 °C 1026.3 in /  34750.5 hPa West 1.6 mph /  2.6 km/h 6.4 mph /  10.3 km/h 93 % 0.0 in /  0 mm
10:57 0.8 °F /  -17.3 °C -0.2 °F /  -17.9 °C 1026.3 in /  34750.5 hPa WSW 1.6 mph /  2.6 km/h 6.4 mph /  10.3 km/h 93 % 0.0 in /  0 mm
11:02 0.9 °F /  -17.3 °C -0.1 °F /  -17.8 °C 1026.3 in /  34750.5 hPa Calm   6.4 mph /  10.3 km/h 93 % 0.0 in /  0 mm
11:07 0.9 °F /  -17.3 °C -0.1 °F /  -17.8 °C 1026.3 in /  34750.5 hPa Calm   4.8 mph /  7.7 km/h 93 % 0.0 in /  0 mm
11:12 0.9 °F /  -17.3 °C -0.3 °F /  -17.9 °C 1026.0 in /  34740.4 hPa WSW 1.6 mph /  2.6 km/h 3.2 mph /  5.1 km/h 92 % 0.0 in /  0 mm
11:17 0.9 °F /  -17.3 °C -0.3 °F /  -17.9 °C 1026.0 in /  34740.4 hPa SW 1.6 mph /  2.6 km/h 3.2 mph /  5.1 km/h 92 % 0.0 in /  0 mm
11:22 0.9 °F /  -17.3 °C -0.3 °F /  -17.9 °C 1026.0 in /  34740.4 hPa SW 1.6 mph /  2.6 km/h 3.2 mph /  5.1 km/h 92 % 0.0 in /  0 mm
11:27 0.9 °F /  -17.3 °C -0.3 °F /  -17.9 °C 1026.0 in /  34740.4 hPa Calm   1.6 mph /  2.6 km/h 92 % 0.0 in /  0 mm
11:32 0.9 °F /  -17.3 °C -0.3 °F /  -17.9 °C 1026.0 in /  34740.4 hPa Calm   1.6 mph /  2.6 km/h 92 % 0.0 in /  0 mm
11:37 1.0 °F /  -17.2 °C -0.2 °F /  -17.9 °C 1026.0 in /  34740.4 hPa Calm   1.6 mph /  2.6 km/h 92 % 0.0 in /  0 mm
11:42 1.1 °F /  -17.2 °C -0.1 °F /  -17.8 °C 1026.0 in /  34740.4 hPa Calm   1.6 mph /  2.6 km/h 92 % 0.0 in /  0 mm
11:47 1.1 °F /  -17.2 °C -0.1 °F /  -17.8 °C 1026.0 in /  34740.4 hPa SSW 1.6 mph /  2.6 km/h 1.6 mph /  2.6 km/h 92 % 0.0 in /  0 mm
11:52 1.1 °F /  -17.2 °C -0.1 °F /  -17.8 °C 1026.0 in /  34740.4 hPa SSW 1.6 mph /  2.6 km/h 3.2 mph /  5.1 km/h 92 % 0.0 in /  0 mm
11:57 1.1 °F /  -17.2 °C -0.1 °F /  -17.8 °C 1026.0 in /  34740.4 hPa Calm   3.2 mph /  5.1 km/h 92 % 0.0 in /  0 mm
12:02 1.2 °F /  -17.1 °C 0.2 °F /  -17.7 °C 1026.0 in /  34740.4 hPa Calm   3.2 mph /  5.1 km/h 93 % 0.0 in /  0 mm
12:07 1.3 °F /  -17.1 °C 0.3 °F /  -17.6 °C 1026.0 in /  34740.4 hPa West 3.2 mph /  5.1 km/h 4.8 mph /  7.7 km/h 93 % 0.0 in /  0 mm
12:12 1.4 °F /  -17 °C 0.4 °F /  -17.6 °C 1026.0 in /  34740.4 hPa SW 1.6 mph /  2.6 km/h 4.8 mph /  7.7 km/h 93 % 0.0 in /  0 mm
12:17 1.5 °F /  -16.9 °C 0.5 °F /  -17.5 °C 1026.0 in /  34740.4 hPa WSW 6.4 mph /  10.3 km/h 6.4 mph /  10.3 km/h 93 % 0.0 in /  0 mm
12:22 1.5 °F /  -16.9 °C 0.5 °F /  -17.5 °C 1026.0 in /  34740.4 hPa SW 4.8 mph /  7.7 km/h 6.4 mph /  10.3 km/h 93 % 0.0 in /  0 mm
12:32 1.6 °F /  -16.9 °C 0.6 °F /  -17.4 °C 1026.0 in /  34740.4 hPa SW 1.6 mph /  2.6 km/h 6.4 mph /  10.3 km/h 93 % 0.0 in /  0 mm
12:37 1.6 °F /  -16.9 °C 0.6 °F /  -17.4 °C 1026.0 in /  34740.4 hPa WSW 1.6 mph /  2.6 km/h 6.4 mph /  10.3 km/h 93 % 0.0 in /  0 mm
12:42 1.7 °F /  -16.8 °C 0.7 °F /  -17.4 °C 1026.0 in /  34740.4 hPa SW 4.8 mph /  7.7 km/h 6.4 mph /  10.3 km/h 93 % 0.0 in /  0 mm
12:52 1.9 °F /  -16.7 °C 0.9 °F /  -17.3 °C 1025.6 in /  34726.8 hPa SW 4.8 mph /  7.7 km/h 6.4 mph /  10.3 km/h 93 % 0.0 in /  0 mm
12:57 1.9 °F /  -16.7 °C 0.9 °F /  -17.3 °C 1025.6 in /  34726.8 hPa WSW 4.8 mph /  7.7 km/h 6.4 mph /  10.3 km/h 93 % 0.0 in /  0 mm
13:02 1.9 °F /  -16.7 °C 0.9 °F /  -17.3 °C 1025.6 in /  34726.8 hPa West 4.8 mph /  7.7 km/h 6.4 mph /  10.3 km/h 93 % 0.0 in /  0 mm
13:07 1.9 °F /  -16.7 °C 0.9 °F /  -17.3 °C 1025.6 in /  34726.8 hPa West 4.8 mph /  7.7 km/h 9.7 mph /  15.6 km/h 93 % 0.0 in /  0 mm
13:12 1.9 °F /  -16.7 °C 0.9 °F /  -17.3 °C 1025.6 in /  34726.8 hPa WSW 3.2 mph /  5.1 km/h 9.7 mph /  15.6 km/h 93 % 0.0 in /  0 mm
13:17 1.9 °F /  -16.7 °C 0.9 °F /  -17.3 °C 1025.6 in /  34726.8 hPa WSW 9.7 mph /  15.6 km/h 9.7 mph /  15.6 km/h 93 % 0.0 in /  0 mm
13:22 1.9 °F /  -16.7 °C 0.9 °F /  -17.3 °C 1025.6 in /  34726.8 hPa SSW 3.2 mph /  5.1 km/h 9.7 mph /  15.6 km/h 93 % 0.0 in /  0 mm
13:27 2.0 °F /  -16.7 °C 1.1 °F /  -17.2 °C 1025.6 in /  34726.8 hPa WSW 3.2 mph /  5.1 km/h 9.7 mph /  15.6 km/h 94 % 0.0 in /  0 mm
13:32 2.1 °F /  -16.6 °C 1.1 °F /  -17.2 °C 1025.3 in /  34716.7 hPa WSW 6.4 mph /  10.3 km/h 9.7 mph /  15.6 km/h 93 % 0.0 in /  0 mm
13:37 2.1 °F /  -16.6 °C 1.2 °F /  -17.1 °C 1025.3 in /  34716.7 hPa WSW 4.8 mph /  7.7 km/h 9.7 mph /  15.6 km/h 94 % 0.0 in /  0 mm
13:42 2.2 °F /  -16.6 °C 1.3 °F /  -17.1 °C 1025.3 in /  34716.7 hPa WSW 3.2 mph /  5.1 km/h 9.7 mph /  15.6 km/h 94 % 0.0 in /  0 mm
13:47 2.2 °F /  -16.6 °C 1.3 °F /  -17.1 °C 1025.3 in /  34716.7 hPa West 4.8 mph /  7.7 km/h 9.7 mph /  15.6 km/h 94 % 0.0 in /  0 mm
13:52 2.3 °F /  -16.5 °C 1.4 °F /  -17 °C 1025.3 in /  34716.7 hPa WSW 6.4 mph /  10.3 km/h 9.7 mph /  15.6 km/h 94 % 0.0 in /  0 mm
13:57 2.3 °F /  -16.5 °C 1.4 °F /  -17 °C 1025.3 in /  34716.7 hPa WSW 4.8 mph /  7.7 km/h 9.7 mph /  15.6 km/h 94 % 0.0 in /  0 mm
14:02 2.4 °F /  -16.4 °C 1.5 °F /  -16.9 °C 1024.9 in /  34703.1 hPa West 3.2 mph /  5.1 km/h 9.7 mph /  15.6 km/h 94 % 0.0 in /  0 mm
14:07 2.4 °F /  -16.4 °C 1.5 °F /  -16.9 °C 1024.9 in /  34703.1 hPa WSW 4.8 mph /  7.7 km/h 9.7 mph /  15.6 km/h 94 % 0.0 in /  0 mm
14:12 2.5 °F /  -16.4 °C 1.5 °F /  -16.9 °C 1024.9 in /  34703.1 hPa WSW 9.7 mph /  15.6 km/h 11.3 mph /  18.2 km/h 93 % 0.0 in /  0 mm
14:17 2.5 °F /  -16.4 °C 1.6 °F /  -16.9 °C 1024.9 in /  34703.1 hPa West 6.4 mph /  10.3 km/h 11.3 mph /  18.2 km/h 94 % 0.0 in /  0 mm
14:22 2.5 °F /  -16.4 °C 1.6 °F /  -16.9 °C 1024.9 in /  34703.1 hPa SW 1.6 mph /  2.6 km/h 11.3 mph /  18.2 km/h 94 % 0.0 in /  0 mm
14:32 2.6 °F /  -16.3 °C 1.7 °F /  -16.8 °C 1024.9 in /  34703.1 hPa West 9.7 mph /  15.6 km/h 9.7 mph /  15.6 km/h 94 % 0.0 in /  0 mm
14:37 2.6 °F /  -16.3 °C 1.6 °F /  -16.9 °C 1024.9 in /  34703.1 hPa NW 3.2 mph /  5.1 km/h 16.1 mph /  25.9 km/h 93 % 0.0 in /  0 mm
14:42 2.7 °F /  -16.3 °C 1.4 °F /  -17 °C 1024.9 in /  34703.1 hPa WNW 8.0 mph /  12.9 km/h 16.1 mph /  25.9 km/h 91 % 0.0 in /  0 mm
14:47 2.7 °F /  -16.3 °C 1.2 °F /  -17.1 °C 1024.9 in /  34703.1 hPa WNW 6.4 mph /  10.3 km/h 16.1 mph /  25.9 km/h 90 % 0.0 in /  0 mm
14:52 2.7 °F /  -16.3 °C 1.2 °F /  -17.1 °C 1024.9 in /  34703.1 hPa WNW 8.0 mph /  12.9 km/h 17.7 mph /  28.5 km/h 90 % 0.0 in /  0 mm
14:57 2.7 °F /  -16.3 °C 1.2 °F /  -17.1 °C 1024.9 in /  34703.1 hPa WNW 4.8 mph /  7.7 km/h 17.7 mph /  28.5 km/h 90 % 0.0 in /  0 mm
15:02 2.7 °F /  -16.3 °C 1.4 °F /  -17 °C 1024.9 in /  34703.1 hPa West 1.6 mph /  2.6 km/h 11.3 mph /  18.2 km/h 91 % 0.0 in /  0 mm
15:07 2.7 °F /  -16.3 °C 1.2 °F /  -17.1 °C 1024.6 in /  34693 hPa West 3.2 mph /  5.1 km/h 9.7 mph /  15.6 km/h 90 % 0.3 in /  7.62 mm
15:12 2.8 °F /  -16.2 °C 1.5 °F /  -16.9 °C 1024.6 in /  34693 hPa WNW 1.6 mph /  2.6 km/h 9.7 mph /  15.6 km/h 91 % 0.3 in /  7.62 mm
15:17 2.8 °F /  -16.2 °C 1.5 °F /  -16.9 °C 1024.9 in /  34703.1 hPa Calm   9.7 mph /  15.6 km/h 91 % 0.3 in /  7.62 mm
15:22 2.9 °F /  -16.2 °C 1.4 °F /  -17 °C 1024.6 in /  34693 hPa West 4.8 mph /  7.7 km/h 9.7 mph /  15.6 km/h 90 % 0.3 in /  7.62 mm
15:37 2.9 °F /  -16.2 °C 1.3 °F /  -17.1 °C 1024.6 in /  34693 hPa WNW 3.2 mph /  5.1 km/h 9.7 mph /  15.6 km/h 89 % 0.3 in /  7.62 mm
15:42 2.9 °F /  -16.2 °C 1.3 °F /  -17.1 °C 1024.6 in /  34693 hPa West 1.6 mph /  2.6 km/h 8.0 mph /  12.9 km/h 89 % 0.3 in /  7.62 mm
15:47 2.9 °F /  -16.2 °C 1.3 °F /  -17.1 °C 1024.6 in /  34693 hPa West 1.6 mph /  2.6 km/h 8.0 mph /  12.9 km/h 89 % 0.3 in /  7.62 mm
15:52 2.9 °F /  -16.2 °C 1.4 °F /  -17 °C 1024.6 in /  34693 hPa Calm   6.4 mph /  10.3 km/h 90 % 0.3 in /  7.62 mm
15:57 2.9 °F /  -16.2 °C 1.3 °F /  -17.1 °C 1024.6 in /  34693 hPa Calm   6.4 mph /  10.3 km/h 89 % 0.3 in /  7.62 mm
16:02 2.9 °F /  -16.2 °C 1.1 °F /  -17.2 °C 1024.6 in /  34693 hPa NW 1.6 mph /  2.6 km/h 6.4 mph /  10.3 km/h 88 % 0.3 in /  7.62 mm
16:07 2.9 °F /  -16.2 °C 1.3 °F /  -17.1 °C 1024.6 in /  34693 hPa Calm   6.4 mph /  10.3 km/h 89 % 0.0 in /  0 mm
16:12 2.9 °F /  -16.2 °C 1.3 °F /  -17.1 °C 1024.6 in /  34693 hPa West 1.6 mph /  2.6 km/h 6.4 mph /  10.3 km/h 89 % 0.0 in /  0 mm
16:17 2.9 °F /  -16.2 °C 1.3 °F /  -17.1 °C 1024.6 in /  34693 hPa West 1.6 mph /  2.6 km/h 4.8 mph /  7.7 km/h 89 % 0.0 in /  0 mm
16:22 2.9 °F /  -16.2 °C 1.3 °F /  -17.1 °C 1024.6 in /  34693 hPa Calm   4.8 mph /  7.7 km/h 89 % 0.0 in /  0 mm
16:27 2.9 °F /  -16.2 °C 1.3 °F /  -17.1 °C 1024.3 in /  34682.8 hPa Calm   4.8 mph /  7.7 km/h 89 % 0.0 in /  0 mm
16:32 2.9 °F /  -16.2 °C 1.4 °F /  -17 °C 1024.6 in /  34693 hPa WNW 4.8 mph /  7.7 km/h 4.8 mph /  7.7 km/h 90 % 0.0 in /  0 mm
16:37 2.6 °F /  -16.3 °C 1.1 °F /  -17.2 °C 1024.6 in /  34693 hPa WNW 6.4 mph /  10.3 km/h 11.3 mph /  18.2 km/h 90 % 0.0 in /  0 mm
16:42 2.3 °F /  -16.5 °C 0.8 °F /  -17.3 °C 1024.3 in /  34682.8 hPa NW 6.4 mph /  10.3 km/h 12.9 mph /  20.8 km/h 90 % 0.0 in /  0 mm
16:47 2.2 °F /  -16.6 °C 0.9 °F /  -17.3 °C 1024.3 in /  34682.8 hPa WNW 4.8 mph /  7.7 km/h 12.9 mph /  20.8 km/h 91 % 0.0 in /  0 mm
16:52 2.1 °F /  -16.6 °C 0.9 °F /  -17.3 °C 1024.3 in /  34682.8 hPa West 1.6 mph /  2.6 km/h 12.9 mph /  20.8 km/h 92 % 0.0 in /  0 mm
17:02 1.9 °F /  -16.7 °C 0.7 °F /  -17.4 °C 1024.3 in /  34682.8 hPa WNW 1.6 mph /  2.6 km/h 6.4 mph /  10.3 km/h 92 % 0.3 in /  7.62 mm
17:07 1.9 °F /  -16.7 °C 0.9 °F /  -17.3 °C 1024.3 in /  34682.8 hPa Calm   4.8 mph /  7.7 km/h 93 % 0.3 in /  7.62 mm
17:12 1.9 °F /  -16.7 °C 0.9 °F /  -17.3 °C 1024.3 in /  34682.8 hPa Calm   4.8 mph /  7.7 km/h 93 % 0.3 in /  7.62 mm
17:17 1.9 °F /  -16.7 °C 0.9 °F /  -17.3 °C 1024.3 in /  34682.8 hPa Calm   3.2 mph /  5.1 km/h 93 % 0.3 in /  7.62 mm
17:22 1.9 °F /  -16.7 °C 0.9 °F /  -17.3 °C 1024.3 in /  34682.8 hPa Calm   1.6 mph /  2.6 km/h 93 % 0.3 in /  7.62 mm
17:27 1.9 °F /  -16.7 °C 0.9 °F /  -17.3 °C 1024.3 in /  34682.8 hPa Calm   1.6 mph /  2.6 km/h 93 % 0.5 in /  12.7 mm
17:32 1.9 °F /  -16.7 °C 0.9 °F /  -17.3 °C 1024.3 in /  34682.8 hPa Calm   1.6 mph /  2.6 km/h 93 % 0.5 in /  12.7 mm
17:37 1.9 °F /  -16.7 °C 0.9 °F /  -17.3 °C 1024.3 in /  34682.8 hPa Calm   1.6 mph /  2.6 km/h 93 % 0.5 in /  12.7 mm
17:42 1.8 °F /  -16.8 °C 0.8 °F /  -17.3 °C 1024.3 in /  34682.8 hPa Calm   1.6 mph /  2.6 km/h 93 % 0.5 in /  12.7 mm
17:52 1.8 °F /  -16.8 °C 0.9 °F /  -17.3 °C 1023.9 in /  34669.3 hPa Calm   1.6 mph /  2.6 km/h 94 % 0.5 in /  12.7 mm
17:57 1.8 °F /  -16.8 °C 0.9 °F /  -17.3 °C 1023.9 in /  34669.3 hPa Calm     94 % 0.3 in /  7.62 mm
18:02 1.8 °F /  -16.8 °C 0.9 °F /  -17.3 °C 1024.3 in /  34682.8 hPa Calm   1.6 mph /  2.6 km/h 94 % 0.3 in /  7.62 mm
18:07 1.8 °F /  -16.8 °C 0.9 °F /  -17.3 °C 1024.3 in /  34682.8 hPa Calm   1.6 mph /  2.6 km/h 94 % 0.3 in /  7.62 mm
18:12 1.8 °F /  -16.8 °C 0.9 °F /  -17.3 °C 1024.3 in /  34682.8 hPa Calm   1.6 mph /  2.6 km/h 94 % 0.5 in /  12.7 mm
18:17 1.7 °F /  -16.8 °C 0.8 °F /  -17.3 °C 1024.3 in /  34682.8 hPa Calm   1.6 mph /  2.6 km/h 94 % 0.5 in /  12.7 mm
18:22 1.6 °F /  -16.9 °C 0.7 °F /  -17.4 °C 1024.3 in /  34682.8 hPa Calm   3.2 mph /  5.1 km/h 94 % 0.5 in /  12.7 mm
18:27 1.6 °F /  -16.9 °C 0.7 °F /  -17.4 °C 1024.3 in /  34682.8 hPa Calm   3.2 mph /  5.1 km/h 94 % 0.3 in /  7.62 mm
18:32 1.6 °F /  -16.9 °C 0.7 °F /  -17.4 °C 1023.9 in /  34669.3 hPa Calm   3.2 mph /  5.1 km/h 94 % 0.3 in /  7.62 mm
18:37 1.6 °F /  -16.9 °C 0.7 °F /  -17.4 °C 1023.9 in /  34669.3 hPa Calm     94 % 0.3 in /  7.62 mm
18:42 1.5 °F /  -16.9 °C 0.6 °F /  -17.4 °C 1023.9 in /  34669.3 hPa Calm     94 % 0.3 in /  7.62 mm
18:47 1.4 °F /  -17 °C 0.5 °F /  -17.5 °C 1023.9 in /  34669.3 hPa Calm     94 % 0.5 in /  12.7 mm
18:52 1.3 °F /  -17.1 °C 0.4 °F /  -17.6 °C 1023.9 in /  34669.3 hPa Calm     94 % 0.5 in /  12.7 mm
18:57 1.3 °F /  -17.1 °C 0.4 °F /  -17.6 °C 1023.9 in /  34669.3 hPa Calm     94 % 0.5 in /  12.7 mm
19:02 1.2 °F /  -17.1 °C 0.3 °F /  -17.6 °C 1023.9 in /  34669.3 hPa Calm     94 % 0.5 in /  12.7 mm
19:07 1.2 °F /  -17.1 °C 0.3 °F /  -17.6 °C 1023.9 in /  34669.3 hPa Calm     94 % 0.5 in /  12.7 mm
19:12 1.2 °F /  -17.1 °C 0.3 °F /  -17.6 °C 1023.9 in /  34669.3 hPa Calm     94 % 0.5 in /  12.7 mm
19:17 1.2 °F /  -17.1 °C 0.5 °F /  -17.5 °C 1023.9 in /  34669.3 hPa Calm     95 % 0.5 in /  12.7 mm
19:22 1.1 °F /  -17.2 °C 0.4 °F /  -17.6 °C 1023.9 in /  34669.3 hPa SSW 1.6 mph /  2.6 km/h   95 % 0.5 in /  12.7 mm
19:27 1.1 °F /  -17.2 °C 0.4 °F /  -17.6 °C 1023.6 in /  34659.1 hPa SW 3.2 mph /  5.1 km/h 3.2 mph /  5.1 km/h 95 % 0.5 in /  12.7 mm
19:32 1.1 °F /  -17.2 °C 0.4 °F /  -17.6 °C 1023.6 in /  34659.1 hPa South 1.6 mph /  2.6 km/h 3.2 mph /  5.1 km/h 95 % 0.5 in /  12.7 mm
19:37 1.1 °F /  -17.2 °C 0.4 °F /  -17.6 °C 1023.6 in /  34659.1 hPa SSW 3.2 mph /  5.1 km/h 3.2 mph /  5.1 km/h 95 % 0.5 in /  12.7 mm
19:42 0.9 °F /  -17.3 °C 0.2 °F /  -17.7 °C 1023.6 in /  34659.1 hPa SW 1.6 mph /  2.6 km/h 3.2 mph /  5.1 km/h 95 % 0.5 in /  12.7 mm
19:47 0.9 °F /  -17.3 °C 0.2 °F /  -17.7 °C 1023.6 in /  34659.1 hPa Calm   4.8 mph /  7.7 km/h 95 % 0.5 in /  12.7 mm
19:52 0.8 °F /  -17.3 °C 0.1 °F /  -17.7 °C 1023.6 in /  34659.1 hPa Calm   4.8 mph /  7.7 km/h 95 % 0.5 in /  12.7 mm
19:57 0.7 °F /  -17.4 °C 0.0 °F /  -17.8 °C 1023.6 in /  34659.1 hPa Calm   4.8 mph /  7.7 km/h 95 % 0.5 in /  12.7 mm
20:02 0.6 °F /  -17.4 °C -0.1 °F /  -17.8 °C 1023.6 in /  34659.1 hPa Calm   3.2 mph /  5.1 km/h 95 % 0.3 in /  7.62 mm
20:07 0.6 °F /  -17.4 °C -0.1 °F /  -17.8 °C 1023.6 in /  34659.1 hPa Calm   3.2 mph /  5.1 km/h 95 % 0.3 in /  7.62 mm
20:12 0.5 °F /  -17.5 °C -0.1 °F /  -17.8 °C 1023.6 in /  34659.1 hPa SSW 1.6 mph /  2.6 km/h 1.6 mph /  2.6 km/h 96 % 0.3 in /  7.62 mm
20:17 0.4 °F /  -17.6 °C -0.2 °F /  -17.9 °C 1023.6 in /  34659.1 hPa SSW 1.6 mph /  2.6 km/h 3.2 mph /  5.1 km/h 96 % 0.3 in /  7.62 mm
20:22 0.3 °F /  -17.6 °C -0.3 °F /  -17.9 °C 1023.2 in /  34645.6 hPa South 1.6 mph /  2.6 km/h 3.2 mph /  5.1 km/h 96 % 0.3 in /  7.62 mm
20:27 0.3 °F /  -17.6 °C -0.3 °F /  -17.9 °C 1023.2 in /  34645.6 hPa SSW 1.6 mph /  2.6 km/h 3.2 mph /  5.1 km/h 96 % 0.3 in /  7.62 mm
20:32 0.2 °F /  -17.7 °C -0.4 °F /  -18 °C 1023.2 in /  34645.6 hPa SSW 3.2 mph /  5.1 km/h 3.2 mph /  5.1 km/h 96 % 0.3 in /  7.62 mm
20:37 0.2 °F /  -17.7 °C -0.4 °F /  -18 °C 1023.2 in /  34645.6 hPa SSW 1.6 mph /  2.6 km/h 4.8 mph /  7.7 km/h 96 % 0.0 in /  0 mm
20:42 0.2 °F /  -17.7 °C -0.4 °F /  -18 °C 1023.2 in /  34645.6 hPa Calm   4.8 mph /  7.7 km/h 96 % 0.0 in /  0 mm
20:47 0.1 °F /  -17.7 °C -0.5 °F /  -18.1 °C 1023.2 in /  34645.6 hPa Calm   4.8 mph /  7.7 km/h 96 % 0.0 in /  0 mm
20:52 0.1 °F /  -17.7 °C -0.5 °F /  -18.1 °C 1023.2 in /  34645.6 hPa Calm   4.8 mph /  7.7 km/h 96 % 0.0 in /  0 mm
20:57 0.1 °F /  -17.7 °C -0.5 °F /  -18.1 °C 1023.2 in /  34645.6 hPa Calm     96 % 0.0 in /  0 mm
21:02 0.1 °F /  -17.7 °C -0.5 °F /  -18.1 °C 1023.2 in /  34645.6 hPa Calm   3.2 mph /  5.1 km/h 96 % 0.0 in /  0 mm
21:07 0.1 °F /  -17.7 °C -0.5 °F /  -18.1 °C 1023.2 in /  34645.6 hPa Calm   3.2 mph /  5.1 km/h 96 % 0.0 in /  0 mm
21:12 0.1 °F /  -17.7 °C -0.5 °F /  -18.1 °C 1022.9 in /  34635.4 hPa Calm   3.2 mph /  5.1 km/h 96 % 0.0 in /  0 mm
21:17 0.1 °F /  -17.7 °C -0.3 °F /  -17.9 °C 1022.9 in /  34635.4 hPa Calm   3.2 mph /  5.1 km/h 97 % 0.0 in /  0 mm
21:22 0.1 °F /  -17.7 °C -0.3 °F /  -17.9 °C 1022.9 in /  34635.4 hPa Calm   3.2 mph /  5.1 km/h 97 % 0.0 in /  0 mm
21:27 0.1 °F /  -17.7 °C -0.3 °F /  -17.9 °C 1022.9 in /  34635.4 hPa Calm   4.8 mph /  7.7 km/h 97 % 0.0 in /  0 mm
21:32 0.1 °F /  -17.7 °C -0.3 °F /  -17.9 °C 1022.9 in /  34635.4 hPa Calm   4.8 mph /  7.7 km/h 97 % 0.0 in /  0 mm
21:37 0.1 °F /  -17.7 °C -0.3 °F /  -17.9 °C 1022.9 in /  34635.4 hPa South 1.6 mph /  2.6 km/h 3.2 mph /  5.1 km/h 97 % 0.0 in /  0 mm
21:42 0.1 °F /  -17.7 °C -0.3 °F /  -17.9 °C 1022.9 in /  34635.4 hPa Calm   3.2 mph /  5.1 km/h 97 % 0.0 in /  0 mm
21:47 0.1 °F /  -17.7 °C -0.3 °F /  -17.9 °C 1022.9 in /  34635.4 hPa SSE 1.6 mph /  2.6 km/h 3.2 mph /  5.1 km/h 97 % 0.0 in /  0 mm
21:52 0.1 °F /  -17.7 °C -0.3 °F /  -17.9 °C 1022.9 in /  34635.4 hPa Calm   3.2 mph /  5.1 km/h 97 % 0.0 in /  0 mm
21:57 0.1 °F /  -17.7 °C -0.3 °F /  -17.9 °C 1022.9 in /  34635.4 hPa Calm   3.2 mph /  5.1 km/h 97 % 0.0 in /  0 mm
22:02 0.1 °F /  -17.7 °C -0.3 °F /  -17.9 °C 1022.6 in /  34625.2 hPa SSE 1.6 mph /  2.6 km/h 3.2 mph /  5.1 km/h 97 % 0.0 in /  0 mm
22:07 0.1 °F /  -17.7 °C -0.3 °F /  -17.9 °C 1022.6 in /  34625.2 hPa Calm   3.2 mph /  5.1 km/h 97 % 0.0 in /  0 mm
22:12 0.1 °F /  -17.7 °C -0.3 °F /  -17.9 °C 1022.6 in /  34625.2 hPa Calm   3.2 mph /  5.1 km/h 97 % 0.0 in /  0 mm
22:17 0.1 °F /  -17.7 °C -0.3 °F /  -17.9 °C 1022.6 in /  34625.2 hPa SSW 3.2 mph /  5.1 km/h 3.2 mph /  5.1 km/h 97 % 0.0 in /  0 mm
22:22 0.1 °F /  -17.7 °C -0.3 °F /  -17.9 °C 1022.6 in /  34625.2 hPa SSE 1.6 mph /  2.6 km/h 3.2 mph /  5.1 km/h 97 % 0.0 in /  0 mm
22:27 0.1 °F /  -17.7 °C -0.3 °F /  -17.9 °C 1022.2 in /  34611.7 hPa ESE 1.6 mph /  2.6 km/h 3.2 mph /  5.1 km/h 97 % 0.0 in /  0 mm
22:32 0.1 °F /  -17.7 °C -0.3 °F /  -17.9 °C 1022.2 in /  34611.7 hPa Calm   3.2 mph /  5.1 km/h 97 % 0.0 in /  0 mm
22:37 0.0 °F /  -17.8 °C -0.4 °F /  -18 °C 1022.2 in /  34611.7 hPa Calm   3.2 mph /  5.1 km/h 97 % 0.0 in /  0 mm
22:42 0.0 °F /  -17.8 °C -0.4 °F /  -18 °C 1022.2 in /  34611.7 hPa Calm   3.2 mph /  5.1 km/h 97 % 0.0 in /  0 mm
22:52 0.1 °F /  -17.7 °C -0.3 °F /  -17.9 °C 1022.2 in /  34611.7 hPa Calm   3.2 mph /  5.1 km/h 97 % 0.0 in /  0 mm
22:57 0.1 °F /  -17.7 °C -0.3 °F /  -17.9 °C 1022.2 in /  34611.7 hPa Calm   3.2 mph /  5.1 km/h 97 % 0.0 in /  0 mm
23:02 0.1 °F /  -17.7 °C -0.3 °F /  -17.9 °C 1022.2 in /  34611.7 hPa SW 1.6 mph /  2.6 km/h 3.2 mph /  5.1 km/h 97 % 0.0 in /  0 mm
23:07 0.1 °F /  -17.7 °C -0.3 °F /  -17.9 °C 1022.2 in /  34611.7 hPa Calm   3.2 mph /  5.1 km/h 97 % 0.0 in /  0 mm
23:12 0.1 °F /  -17.7 °C -0.3 °F /  -17.9 °C 1022.2 in /  34611.7 hPa Calm   3.2 mph /  5.1 km/h 97 % 0.0 in /  0 mm
23:17 0.1 °F /  -17.7 °C -0.3 °F /  -17.9 °C 1021.9 in /  34601.5 hPa Calm   3.2 mph /  5.1 km/h 97 % 0.0 in /  0 mm
23:22 0.1 °F /  -17.7 °C -0.3 °F /  -17.9 °C 1022.2 in /  34611.7 hPa Calm   1.6 mph /  2.6 km/h 97 % 0.0 in /  0 mm
23:27 0.1 °F /  -17.7 °C -0.3 °F /  -17.9 °C 1022.2 in /  34611.7 hPa Calm   1.6 mph /  2.6 km/h 97 % 0.0 in /  0 mm
23:32 0.1 °F /  -17.7 °C -0.3 °F /  -17.9 °C 1022.2 in /  34611.7 hPa Calm   1.6 mph /  2.6 km/h 97 % 0.0 in /  0 mm
23:37 0.1 °F /  -17.7 °C -0.3 °F /  -17.9 °C 1022.2 in /  34611.7 hPa Calm   1.6 mph /  2.6 km/h 97 % 0.0 in /  0 mm
23:42 0.1 °F /  -17.7 °C -0.3 °F /  -17.9 °C 1022.2 in /  34611.7 hPa Calm   1.6 mph /  2.6 km/h 97 % 0.0 in /  0 mm
23:47 0.1 °F /  -17.7 °C -0.3 °F /  -17.9 °C 1021.9 in /  34601.5 hPa Calm   1.6 mph /  2.6 km/h 97 % 0.0 in /  0 mm
23:52 0.0 °F /  -17.8 °C -0.4 °F /  -18 °C 1021.9 in /  34601.5 hPa Calm   1.6 mph /  2.6 km/h 97 % 0.0 in /  0 mm
23:57 0.0 °F /  -17.8 °C -0.4 °F /  -18 °C 1021.9 in /  34601.5 hPa Calm     97 % 0.0 in /  0 mm
Meteo18
Compliments of Weather Underground - 4 mb

Script developed by  Jim McMurry - jmcmurry@mwt.net Adapted for the template by  Wim van der Kuil - Leuven-Template.eu

You find our weather info also at:

European Weather Network

Weather Underground

Equipment we use:

Weather-station
Davis Vue

Weather-program
Meteobridge

Weather-server
Raspberry PI 2 B+

Provider
1 and 1

Davis Vue

Meteobridge

Raspberry PI 2 B+

1 and 1